createdAt,value
2018-10-17T00:01:44.132Z,8.71
2018-10-17T00:04:13.413Z,8.60
2018-10-17T00:06:42.517Z,8.54
2018-10-17T00:09:11.879Z,8.64
2018-10-17T00:11:41.024Z,8.74
2018-10-17T00:14:10.166Z,8.64
2018-10-17T00:16:39.423Z,8.61
2018-10-17T00:19:08.939Z,8.58
2018-10-17T00:21:38.406Z,8.55
2018-10-17T00:24:07.574Z,8.53
2018-10-17T00:26:39.954Z,8.49
2018-10-17T00:29:09.150Z,8.49
2018-10-17T00:31:38.393Z,8.48
2018-10-17T00:34:07.640Z,8.46
2018-10-17T00:36:36.777Z,8.47
2018-10-17T00:39:07.947Z,8.38
2018-10-17T00:41:37.259Z,8.37
2018-10-17T00:44:06.496Z,8.36
2018-10-17T00:46:35.744Z,8.33
2018-10-17T00:49:05.035Z,8.35
2018-10-17T00:51:34.435Z,8.31
2018-10-17T00:54:03.504Z,8.30
2018-10-17T00:56:32.828Z,8.29
2018-10-17T00:59:07.773Z,8.21
2018-10-17T01:01:37.444Z,8.16
2018-10-17T01:04:07.037Z,8.08
2018-10-17T01:06:36.590Z,8.34
2018-10-17T01:09:09.295Z,8.37
2018-10-17T01:11:39.020Z,8.42
2018-10-17T01:14:08.685Z,8.53
2018-10-17T01:16:37.980Z,8.35
2018-10-17T01:19:07.354Z,8.23
2018-10-17T01:21:37.252Z,8.21
2018-10-17T01:24:06.560Z,8.18
2018-10-17T01:26:35.916Z,8.14
2018-10-17T01:29:05.143Z,8.14
2018-10-17T01:31:34.295Z,8.07
2018-10-17T01:34:03.479Z,7.95
2018-10-17T01:36:32.803Z,7.89
2018-10-17T01:39:01.991Z,7.96
2018-10-17T01:41:31.286Z,7.94
2018-10-17T01:44:00.472Z,7.94
2018-10-17T01:46:29.791Z,7.87
2018-10-17T01:48:59.307Z,7.90
2018-10-17T01:51:28.483Z,7.84
2018-10-17T01:53:57.785Z,7.87
2018-10-17T01:56:27.087Z,7.81
2018-10-17T01:58:56.154Z,7.72
2018-10-17T02:01:25.381Z,7.79
2018-10-17T02:03:54.557Z,7.78
2018-10-17T02:06:23.900Z,7.75
2018-10-17T02:08:53.051Z,7.69
2018-10-17T02:11:22.282Z,7.58
2018-10-17T02:13:51.346Z,7.71
2018-10-17T02:16:20.671Z,7.83
2018-10-17T02:18:49.930Z,7.80
2018-10-17T02:21:19.268Z,7.80
2018-10-17T02:23:48.426Z,7.77
2018-10-17T02:26:17.658Z,7.78
2018-10-17T02:28:46.961Z,7.77
2018-10-17T02:31:16.359Z,7.72
2018-10-17T02:33:45.327Z,7.63
2018-10-17T02:36:14.571Z,7.63
2018-10-17T02:38:43.713Z,7.62
2018-10-17T02:41:12.928Z,7.63
2018-10-17T02:43:42.036Z,7.61
2018-10-17T02:46:11.262Z,7.53
2018-10-17T02:48:40.505Z,7.51
2018-10-17T02:51:09.640Z,7.47
2018-10-17T02:53:38.795Z,7.38
2018-10-17T02:56:08.030Z,7.63
2018-10-17T02:58:37.299Z,7.74
2018-10-17T03:01:06.626Z,7.68
2018-10-17T03:03:35.806Z,7.64
2018-10-17T03:06:05.036Z,7.57
2018-10-17T03:08:34.317Z,7.49
2018-10-17T03:11:03.443Z,7.51
2018-10-17T03:13:32.609Z,7.40
2018-10-17T03:16:01.863Z,7.41
2018-10-17T03:18:31.324Z,7.36
2018-10-17T03:21:00.664Z,7.33
2018-10-17T03:23:29.825Z,7.22
2018-10-17T03:25:59.235Z,7.24
2018-10-17T03:28:28.524Z,7.20
2018-10-17T03:30:57.902Z,7.24
2018-10-17T03:33:27.032Z,7.17
2018-10-17T03:35:56.168Z,7.17
2018-10-17T03:38:25.422Z,7.11
2018-10-17T03:40:54.863Z,7.19
2018-10-17T03:43:23.901Z,7.16
2018-10-17T03:45:53.137Z,7.19
2018-10-17T03:48:22.513Z,7.10
2018-10-17T03:50:51.823Z,7.04
2018-10-17T03:53:21.089Z,7.11
2018-10-17T03:55:50.432Z,7.12
2018-10-17T03:58:19.473Z,7.11
2018-10-17T04:03:43.766Z,7.11
2018-10-17T04:06:12.455Z,6.98
2018-10-17T04:08:41.060Z,7.01
2018-10-17T04:11:09.950Z,7.07
2018-10-17T04:13:38.803Z,7.01
2018-10-17T04:16:07.571Z,6.99
2018-10-17T04:18:36.582Z,6.96
2018-10-17T04:21:06.246Z,6.93
2018-10-17T04:23:34.984Z,6.93
2018-10-17T04:26:03.842Z,6.99
2018-10-17T04:28:32.749Z,7.17
2018-10-17T04:31:01.605Z,7.07
2018-10-17T04:33:30.552Z,7.12
2018-10-17T04:40:43.824Z,6.84
2018-10-17T04:43:12.750Z,6.80
2018-10-17T04:45:41.452Z,6.88
2018-10-17T04:48:10.284Z,6.93
2018-10-17T04:50:39.335Z,6.90
2018-10-17T04:53:08.129Z,6.74
2018-10-17T04:55:36.837Z,6.73
2018-10-17T04:58:05.515Z,6.83
2018-10-17T05:00:34.334Z,6.79
2018-10-17T05:03:03.217Z,6.66
2018-10-17T05:05:32.038Z,6.67
2018-10-17T05:08:03.839Z,6.75
2018-10-17T05:10:32.652Z,6.81
2018-10-17T05:13:01.496Z,6.81
2018-10-17T05:15:30.206Z,6.96
2018-10-17T05:17:59.061Z,6.97
2018-10-17T05:20:28.459Z,6.87
2018-10-17T05:22:57.099Z,6.81
2018-10-17T05:25:26.101Z,6.84
2018-10-17T05:27:54.987Z,6.80
2018-10-17T05:30:23.819Z,6.76
2018-10-17T05:32:52.584Z,6.67
2018-10-17T05:35:21.359Z,6.80
2018-10-17T05:37:50.168Z,6.76
2018-10-17T05:40:18.912Z,6.74
2018-10-17T05:42:47.707Z,6.74
2018-10-17T05:45:16.422Z,6.74
2018-10-17T05:47:45.034Z,6.65
2018-10-17T05:50:13.764Z,6.69
2018-10-17T05:52:42.552Z,6.75
2018-10-17T05:55:11.595Z,6.70
2018-10-17T05:57:40.178Z,6.93
2018-10-17T06:00:09.644Z,7.09
2018-10-17T06:02:39.135Z,7.07
2018-10-17T06:05:08.903Z,7.05
2018-10-17T06:07:37.615Z,7.13
2018-10-17T06:10:07.913Z,7.12
2018-10-17T06:12:36.631Z,7.07
2018-10-17T06:15:06.456Z,7.03
2018-10-17T06:17:35.894Z,7.21
2018-10-17T06:20:05.077Z,7.12
2018-10-17T06:22:33.734Z,7.11
2018-10-17T06:25:02.901Z,7.18
2018-10-17T06:27:31.597Z,7.22
2018-10-17T06:30:00.427Z,7.13
2018-10-17T06:32:29.202Z,7.15
2018-10-17T06:34:57.845Z,7.26
2018-10-17T06:37:26.605Z,7.32
2018-10-17T06:39:55.500Z,7.42
2018-10-17T06:42:24.478Z,7.53
2018-10-17T06:44:53.362Z,7.61
2018-10-17T06:47:22.317Z,7.68
2018-10-17T06:49:51.143Z,7.71
2018-10-17T06:52:20.051Z,7.75
2018-10-17T06:54:48.820Z,7.85
2018-10-17T06:57:17.512Z,7.93
2018-10-17T06:59:46.299Z,8.06
2018-10-17T07:02:15.118Z,8.11
2018-10-17T07:04:43.692Z,8.25
2018-10-17T07:07:12.577Z,8.30
2018-10-17T07:09:41.282Z,8.46
2018-10-17T07:12:10.039Z,8.57
2018-10-17T07:14:38.660Z,8.52
2018-10-17T07:17:07.467Z,8.60
2018-10-17T07:19:36.327Z,8.68
2018-10-17T07:22:05.294Z,8.80
2018-10-17T07:24:34.202Z,9.01
2018-10-17T07:27:02.995Z,9.04
2018-10-17T07:29:32.271Z,9.13
2018-10-17T07:32:01.227Z,9.35
2018-10-17T07:34:30.142Z,9.43
2018-10-17T07:36:58.811Z,9.57
2018-10-17T07:39:27.704Z,9.92
2018-10-17T07:41:56.731Z,9.96
2018-10-17T07:44:25.699Z,10.10
2018-10-17T07:46:54.485Z,10.24
2018-10-17T07:49:23.482Z,10.21
2018-10-17T07:51:52.387Z,10.34
2018-10-17T07:54:21.202Z,10.35
2018-10-17T07:56:50.440Z,10.56
2018-10-17T07:59:19.723Z,10.67
2018-10-17T08:01:48.486Z,10.88
2018-10-17T08:04:17.173Z,10.99
2018-10-17T08:06:46.204Z,11.27
2018-10-17T08:09:14.902Z,11.30
2018-10-17T08:11:43.716Z,11.48
2018-10-17T08:14:12.455Z,11.64
2018-10-17T08:16:41.554Z,11.76
2018-10-17T08:19:10.168Z,11.92
2018-10-17T08:21:39.059Z,12.10
2018-10-17T08:24:07.873Z,12.23
2018-10-17T08:26:36.904Z,12.23
2018-10-17T08:29:05.952Z,12.53
2018-10-17T08:31:34.747Z,12.73
2018-10-17T08:34:03.787Z,12.68
2018-10-17T08:36:32.692Z,12.90
2018-10-17T08:39:01.295Z,13.14
2018-10-17T08:41:30.203Z,13.28
2018-10-17T08:43:59.293Z,13.47
2018-10-17T08:46:28.539Z,13.76
2018-10-17T08:48:57.148Z,13.97
2018-10-17T08:51:25.963Z,14.19
2018-10-17T08:53:55.128Z,14.46
2018-10-17T08:56:24.067Z,14.58
2018-10-17T08:58:53.135Z,14.77
2018-10-17T09:01:22.235Z,14.81
2018-10-17T09:03:50.962Z,14.96
2018-10-17T09:06:19.776Z,15.00
2018-10-17T09:08:48.714Z,15.16
2018-10-17T09:11:17.599Z,15.40
2018-10-17T09:13:46.302Z,15.44
2018-10-17T09:16:15.153Z,15.61
2018-10-17T09:18:44.036Z,15.68
2018-10-17T09:21:13.307Z,15.78
2018-10-17T09:23:41.684Z,15.77
2018-10-17T09:26:10.506Z,15.93
2018-10-17T09:28:39.825Z,16.17
2018-10-17T09:31:08.723Z,16.28
2018-10-17T09:33:37.588Z,16.38
2018-10-17T09:36:07.252Z,16.46
2018-10-17T09:38:36.423Z,16.54
2018-10-17T09:41:05.312Z,16.78
2018-10-17T09:43:34.082Z,16.87
2018-10-17T09:46:03.044Z,17.04
2018-10-17T09:48:32.086Z,17.12
2018-10-17T09:51:00.976Z,17.28
2018-10-17T09:53:29.827Z,17.33
2018-10-17T09:55:58.645Z,17.33
2018-10-17T09:58:27.320Z,17.25
2018-10-17T10:01:01.236Z,17.38
2018-10-17T10:03:30.020Z,17.40
2018-10-17T10:05:58.891Z,17.54
2018-10-17T10:08:28.112Z,17.70
2018-10-17T10:10:57.064Z,17.73
2018-10-17T10:13:26.166Z,17.79
2018-10-17T10:15:55.085Z,17.78
2018-10-17T10:18:23.754Z,17.91
2018-10-17T10:20:52.371Z,17.97
2018-10-17T10:23:21.642Z,17.97
2018-10-17T10:25:50.289Z,18.03
2018-10-17T10:28:19.278Z,18.05
2018-10-17T10:30:48.333Z,18.07
2018-10-17T10:33:17.428Z,18.26
2018-10-17T10:35:46.330Z,18.33
2018-10-17T10:38:15.207Z,18.50
2018-10-17T10:40:44.230Z,18.41
2018-10-17T10:43:12.851Z,18.46
2018-10-17T10:45:41.633Z,19.51
2018-10-17T10:48:10.658Z,21.48
2018-10-17T10:50:39.351Z,20.94
2018-10-17T10:53:08.074Z,19.61
2018-10-17T10:55:36.929Z,19.25
2018-10-17T10:58:06.183Z,18.95
2018-10-17T11:00:34.918Z,19.02
2018-10-17T11:03:04.015Z,19.24
2018-10-17T11:05:33.485Z,18.83
2018-10-17T11:08:01.925Z,18.82
2018-10-17T11:10:30.698Z,19.07
2018-10-17T11:12:59.510Z,18.68
2018-10-17T11:15:28.187Z,19.16
2018-10-17T11:17:56.802Z,20.56
2018-10-17T11:20:25.623Z,20.94
2018-10-17T11:22:54.307Z,20.74
2018-10-17T11:25:23.018Z,19.94
2018-10-17T11:27:52.009Z,19.80
2018-10-17T11:30:20.690Z,19.58
2018-10-17T11:32:49.762Z,19.95
2018-10-17T11:35:18.956Z,19.65
2018-10-17T11:37:47.829Z,19.84
2018-10-17T11:40:16.654Z,20.65
2018-10-17T11:42:45.361Z,22.51
2018-10-17T11:45:14.138Z,23.76
2018-10-17T11:47:42.801Z,23.44
2018-10-17T11:50:11.906Z,22.77
2018-10-17T11:52:40.903Z,23.02
2018-10-17T11:55:09.934Z,22.22
2018-10-17T11:57:38.738Z,21.16
2018-10-17T12:00:09.894Z,21.96
2018-10-17T12:02:38.525Z,20.99
2018-10-17T12:05:09.906Z,21.52
2018-10-17T12:07:38.315Z,22.28
2018-10-17T12:10:07.398Z,21.91
2018-10-17T12:12:36.282Z,21.33
2018-10-17T12:15:06.993Z,20.93
2018-10-17T12:17:35.691Z,21.02
2018-10-17T12:20:04.988Z,20.71
2018-10-17T12:22:33.607Z,20.63
2018-10-17T12:25:02.391Z,20.70
2018-10-17T12:27:31.116Z,20.85
2018-10-17T12:29:59.906Z,20.42
2018-10-17T12:32:28.731Z,20.44
2018-10-17T12:34:58.105Z,20.77
2018-10-17T12:37:27.254Z,20.56
2018-10-17T12:39:56.018Z,20.45
2018-10-17T12:42:24.807Z,20.02
2018-10-17T12:44:53.703Z,20.29
2018-10-17T12:47:22.545Z,20.34
2018-10-17T12:49:51.415Z,20.71
2018-10-17T12:52:20.234Z,20.58
2018-10-17T12:54:49.140Z,20.58
2018-10-17T12:57:18.060Z,20.69
2018-10-17T12:59:46.750Z,20.69
2018-10-17T13:02:15.780Z,20.43
2018-10-17T13:04:44.534Z,20.99
2018-10-17T13:07:13.646Z,20.77
2018-10-17T13:09:42.463Z,20.42
2018-10-17T13:12:12.328Z,20.44
2018-10-17T13:14:41.123Z,20.19
2018-10-17T13:17:10.001Z,20.39
2018-10-17T13:19:38.658Z,20.52
2018-10-17T13:22:07.982Z,20.53
2018-10-17T13:24:36.836Z,20.42
2018-10-17T13:27:05.832Z,20.39
2018-10-17T13:29:34.450Z,20.18
2018-10-17T13:32:03.189Z,20.38
2018-10-17T13:34:31.859Z,20.37
2018-10-17T13:37:00.655Z,20.28
2018-10-17T13:39:29.582Z,20.27
2018-10-17T13:41:58.253Z,20.21
2018-10-17T13:44:27.119Z,20.24
2018-10-17T13:46:55.917Z,20.25
2018-10-17T13:49:25.421Z,20.12
2018-10-17T13:51:54.112Z,20.15
2018-10-17T13:54:22.991Z,20.05
2018-10-17T13:56:51.900Z,20.08
2018-10-17T13:59:20.794Z,20.11
2018-10-17T14:01:49.581Z,19.84
2018-10-17T14:04:18.210Z,19.84
2018-10-17T14:06:47.559Z,19.77
2018-10-17T14:09:16.688Z,19.78
2018-10-17T14:11:45.579Z,19.79
2018-10-17T14:14:14.409Z,19.78
2018-10-17T14:16:43.224Z,19.56
2018-10-17T14:19:11.896Z,19.76
2018-10-17T14:21:41.030Z,19.67
2018-10-17T14:24:10.419Z,19.58
2018-10-17T14:26:39.096Z,19.70
2018-10-17T14:29:07.867Z,19.74
2018-10-17T14:31:36.765Z,19.70
2018-10-17T14:34:06.074Z,19.65
2018-10-17T14:36:34.728Z,19.66
2018-10-17T14:39:03.889Z,19.66
2018-10-17T14:41:32.744Z,19.65
2018-10-17T14:44:02.355Z,19.62
2018-10-17T14:46:31.247Z,19.55
2018-10-17T14:48:59.994Z,19.17
2018-10-17T14:51:28.949Z,18.86
2018-10-17T14:53:57.783Z,18.68
2018-10-17T14:56:26.816Z,18.78
2018-10-17T14:59:01.955Z,18.85
2018-10-17T15:01:31.403Z,19.04
2018-10-17T15:04:00.226Z,19.09
2018-10-17T15:06:29.043Z,19.06
2018-10-17T15:08:57.994Z,18.72
2018-10-17T15:11:27.174Z,18.29
2018-10-17T15:13:55.799Z,18.10
2018-10-17T15:16:27.484Z,17.98
2018-10-17T15:18:56.310Z,17.76
2018-10-17T15:21:25.323Z,17.62
2018-10-17T15:23:54.142Z,17.71
2018-10-17T15:26:23.560Z,17.31
2018-10-17T15:28:52.337Z,17.30
2018-10-17T15:31:21.050Z,17.20
2018-10-17T15:33:50.381Z,17.15
2018-10-17T15:36:19.293Z,17.02
2018-10-17T15:38:48.039Z,16.93
2018-10-17T15:41:16.783Z,16.72
2018-10-17T15:43:46.096Z,16.62
2018-10-17T15:46:14.754Z,16.42
2018-10-17T15:48:43.533Z,16.35
2018-10-17T15:51:12.662Z,16.22
2018-10-17T15:53:41.418Z,15.97
2018-10-17T15:56:10.228Z,15.90
2018-10-17T15:58:39.095Z,15.79
2018-10-17T16:01:07.928Z,15.70
2018-10-17T16:03:36.775Z,15.59
2018-10-17T16:06:06.306Z,15.47
2018-10-17T16:08:34.947Z,15.39
2018-10-17T16:11:03.913Z,15.35
2018-10-17T16:13:32.994Z,15.27
2018-10-17T16:16:01.851Z,15.10
2018-10-17T16:18:30.611Z,14.94
2018-10-17T16:20:59.338Z,14.76
2018-10-17T16:23:28.086Z,14.71
2018-10-17T16:25:56.997Z,14.60
2018-10-17T16:28:25.783Z,14.44
2018-10-17T16:30:54.552Z,14.33
2018-10-17T16:33:23.447Z,14.31
2018-10-17T16:35:52.596Z,14.30
2018-10-17T16:38:21.436Z,14.17
2018-10-17T16:40:50.357Z,14.06
2018-10-17T16:43:19.228Z,13.96
2018-10-17T16:45:48.040Z,13.88
2018-10-17T16:48:17.066Z,13.80
2018-10-17T16:50:45.989Z,13.71
2018-10-17T16:53:14.947Z,13.62
2018-10-17T16:55:43.920Z,13.55
2018-10-17T16:58:12.977Z,13.46
2018-10-17T17:00:41.591Z,13.43
2018-10-17T17:03:10.445Z,13.32
2018-10-17T17:05:39.446Z,13.37
2018-10-17T17:08:08.094Z,13.34
2018-10-17T17:10:36.809Z,13.25
2018-10-17T17:13:06.139Z,13.09
2018-10-17T17:15:37.481Z,12.99
2018-10-17T17:18:06.207Z,12.93
2018-10-17T17:20:35.052Z,12.86
2018-10-17T17:23:03.955Z,12.79
2018-10-17T17:25:33.409Z,12.73
2018-10-17T17:28:02.331Z,12.72
2018-10-17T17:30:31.115Z,12.65
2018-10-17T17:32:59.886Z,12.57
2018-10-17T17:35:28.798Z,12.52
2018-10-17T17:37:58.286Z,12.49
2018-10-17T17:40:26.949Z,12.43
2018-10-17T17:42:55.880Z,12.37
2018-10-17T17:45:24.701Z,12.31
2018-10-17T17:47:53.876Z,12.23
2018-10-17T17:50:22.980Z,12.26
2018-10-17T17:52:51.866Z,12.21
2018-10-17T17:55:20.663Z,12.16
2018-10-17T17:57:49.355Z,12.10
2018-10-17T18:00:18.329Z,12.03
2018-10-17T18:02:47.051Z,12.00
2018-10-17T18:05:16.119Z,11.96
2018-10-17T18:07:44.867Z,11.91
2018-10-17T18:10:13.714Z,11.92
2018-10-17T18:12:42.576Z,11.89
2018-10-17T18:15:11.499Z,11.78
2018-10-17T18:17:40.192Z,11.73
2018-10-17T18:20:09.235Z,11.76
2018-10-17T18:22:38.203Z,11.73
2018-10-17T18:25:08.999Z,11.69
2018-10-17T18:27:38.629Z,11.66
2018-10-17T18:30:07.616Z,11.64
2018-10-17T18:32:36.425Z,11.58
2018-10-17T18:35:06.292Z,11.51
2018-10-17T18:37:35.321Z,11.49
2018-10-17T18:40:04.261Z,11.47
2018-10-17T18:42:33.040Z,11.43
2018-10-17T18:45:02.046Z,11.31
2018-10-17T18:47:31.142Z,11.29
2018-10-17T18:50:03.724Z,11.26
2018-10-17T18:52:33.416Z,11.24
2018-10-17T18:55:03.089Z,11.26
2018-10-17T18:57:32.872Z,11.22
2018-10-17T19:00:01.790Z,11.18
2018-10-17T19:02:31.627Z,11.14
2018-10-17T19:05:00.749Z,11.10
2018-10-17T19:07:30.048Z,11.06
2018-10-17T19:09:59.133Z,11.05
2018-10-17T19:12:28.431Z,11.05
2018-10-17T19:14:57.305Z,10.92
2018-10-17T19:17:26.420Z,10.98
2018-10-17T19:19:56.348Z,10.94
2018-10-17T19:22:25.367Z,10.89
2018-10-17T19:24:54.261Z,10.86
2018-10-17T19:27:22.938Z,10.84
2018-10-17T19:29:51.726Z,10.75
2018-10-17T19:32:20.490Z,10.66
2018-10-17T19:34:51.224Z,10.69
2018-10-17T19:37:20.308Z,10.60
2018-10-17T19:39:49.029Z,10.69
2018-10-17T19:42:18.093Z,10.62
2018-10-17T19:44:47.208Z,10.60
2018-10-17T19:47:16.107Z,10.57
2018-10-17T19:49:45.232Z,10.52
2018-10-17T19:52:14.728Z,10.51
2018-10-17T19:54:44.122Z,10.41
2018-10-17T19:57:13.281Z,10.46
2018-10-17T19:59:42.768Z,10.40
2018-10-17T20:02:12.375Z,10.36
2018-10-17T20:04:41.533Z,10.28
2018-10-17T20:07:10.767Z,10.31
2018-10-17T20:09:39.932Z,10.36
2018-10-17T20:12:09.076Z,10.31
2018-10-17T20:14:37.968Z,10.27
2018-10-17T20:17:07.752Z,10.24
2018-10-17T20:19:36.835Z,10.20
2018-10-17T20:22:08.795Z,10.11
2018-10-17T20:24:37.390Z,10.06
2018-10-17T20:27:06.836Z,10.15
2018-10-17T20:29:35.483Z,10.13
2018-10-17T20:32:04.410Z,10.14
2018-10-17T20:34:33.201Z,10.04
2018-10-17T20:37:01.983Z,9.99
2018-10-17T20:39:30.982Z,9.99
2018-10-17T20:42:00.150Z,9.92
2018-10-17T20:44:29.047Z,9.96
2018-10-17T20:46:57.771Z,9.85
2018-10-17T20:49:26.981Z,9.81
2018-10-17T20:51:55.638Z,9.83
2018-10-17T20:54:24.715Z,9.80
2018-10-17T20:56:53.735Z,9.81
2018-10-17T20:59:22.502Z,9.79
2018-10-17T21:01:51.641Z,9.77
2018-10-17T21:04:20.473Z,9.68
2018-10-17T21:06:49.597Z,9.56
2018-10-17T21:09:18.475Z,9.63
2018-10-17T21:11:47.416Z,9.64
2018-10-17T21:14:16.297Z,9.66
2018-10-17T21:16:44.931Z,9.58
2018-10-17T21:19:13.655Z,9.55
2018-10-17T21:21:42.465Z,9.53
2018-10-17T21:24:11.815Z,9.51
2018-10-17T21:26:40.684Z,9.46
2018-10-17T21:29:09.590Z,9.42
2018-10-17T21:31:38.402Z,9.41
2018-10-17T21:34:07.252Z,9.42
2018-10-17T21:36:35.862Z,9.36
2018-10-17T21:39:07.838Z,9.37
2018-10-17T21:41:36.623Z,9.45
2018-10-17T21:44:05.951Z,9.34
2018-10-17T21:46:34.699Z,9.33
2018-10-17T21:49:03.443Z,9.34
2018-10-17T21:51:32.314Z,9.34
2018-10-17T21:54:00.935Z,9.25
2018-10-17T21:56:29.834Z,9.29
2018-10-17T21:58:58.606Z,9.27
2018-10-17T22:01:27.492Z,9.24
2018-10-17T22:03:56.329Z,9.22
2018-10-17T22:06:25.260Z,9.17
2018-10-17T22:08:54.894Z,9.14
2018-10-17T22:11:23.707Z,9.05
2018-10-17T22:13:52.544Z,9.13
2018-10-17T22:16:21.519Z,9.05
2018-10-17T22:18:50.616Z,9.02
2018-10-17T22:21:19.401Z,9.07
2018-10-17T22:23:48.279Z,9.02
2018-10-17T22:26:17.163Z,9.03
2018-10-17T22:28:46.124Z,8.95
2018-10-17T22:31:14.875Z,8.92
2018-10-17T22:33:43.835Z,8.94
2018-10-17T22:36:12.717Z,8.93
2018-10-17T22:38:41.606Z,8.95
2018-10-17T22:41:10.562Z,8.94
2018-10-17T22:43:39.148Z,8.95
2018-10-17T22:46:07.754Z,8.91
2018-10-17T22:48:36.411Z,8.95
2018-10-17T22:51:05.303Z,8.89
2018-10-17T22:53:34.147Z,8.82
2018-10-17T22:56:03.114Z,8.84
2018-10-17T22:58:31.751Z,8.77
2018-10-17T23:01:00.869Z,8.70
2018-10-17T23:03:29.501Z,8.62
2018-10-17T23:05:58.298Z,8.70
2018-10-17T23:08:27.068Z,8.68
2018-10-17T23:10:55.986Z,8.67
2018-10-17T23:13:24.849Z,8.67
2018-10-17T23:15:53.811Z,8.52
2018-10-17T23:18:22.423Z,8.56
2018-10-17T23:20:51.410Z,8.55
2018-10-17T23:23:20.199Z,8.59
2018-10-17T23:25:49.096Z,8.60
2018-10-17T23:28:17.977Z,8.60
2018-10-17T23:30:46.775Z,8.57
2018-10-17T23:33:15.729Z,8.53
2018-10-17T23:35:44.575Z,8.44
2018-10-17T23:38:13.262Z,8.49
2018-10-17T23:40:41.957Z,8.47
2018-10-17T23:43:11.160Z,8.37
2018-10-17T23:45:39.810Z,8.29
2018-10-17T23:48:09.840Z,8.31
2018-10-17T23:50:39.067Z,8.41
2018-10-17T23:53:08.591Z,8.36
2018-10-17T23:55:37.320Z,8.41
2018-10-17T23:58:06.312Z,8.24
